sensor_id;sensor_type;location;lat;lon;timestamp;temperature;humidity
43049;DHT22;28673;44.412;11.918;2022-12-29T00:02:14;9.40;99.90
43049;DHT22;28673;44.412;11.918;2022-12-29T00:04:40;9.30;99.90
43049;DHT22;28673;44.412;11.918;2022-12-29T00:07:07;9.30;99.90
43049;DHT22;28673;44.412;11.918;2022-12-29T00:09:34;9.30;99.90
43049;DHT22;28673;44.412;11.918;2022-12-29T00:12:00;9.30;99.90
43049;DHT22;28673;44.412;11.918;2022-12-29T00:14:27;9.20;99.90
43049;DHT22;28673;44.412;11.918;2022-12-29T00:17:12;9.20;99.90
43049;DHT22;28673;44.412;11.918;2022-12-29T00:19:37;9.10;99.90
43049;DHT22;28673;44.412;11.918;2022-12-29T00:22:22;9.10;99.90
43049;DHT22;28673;44.412;11.918;2022-12-29T00:25:09;9.10;99.90
43049;DHT22;28673;44.412;11.918;2022-12-29T00:27:54;9.00;99.90
43049;DHT22;28673;44.412;11.918;2022-12-29T00:30:40;9.00;99.90
43049;DHT22;28673;44.412;11.918;2022-12-29T00:33:34;9.00;99.90
43049;DHT22;28673;44.412;11.918;2022-12-29T00:36:37;9.00;99.90
43049;DHT22;28673;44.412;11.918;2022-12-29T00:39:12;9.00;99.90
43049;DHT22;28673;44.412;11.918;2022-12-29T00:42:06;9.00;99.90
43049;DHT22;28673;44.412;11.918;2022-12-29T00:45:05;8.90;99.90
43049;DHT22;28673;44.412;11.918;2022-12-29T00:47:31;8.90;99.90
43049;DHT22;28673;44.412;11.918;2022-12-29T00:49:57;8.90;99.90
43049;DHT22;28673;44.412;11.918;2022-12-29T00:52:22;9.00;99.90
43049;DHT22;28673;44.412;11.918;2022-12-29T00:54:48;9.00;99.90
43049;DHT22;28673;44.412;11.918;2022-12-29T00:57:14;9.00;99.90
43049;DHT22;28673;44.412;11.918;2022-12-29T00:59:41;9.00;99.90
43049;DHT22;28673;44.412;11.918;2022-12-29T01:02:08;9.00;99.90
43049;DHT22;28673;44.412;11.918;2022-12-29T01:04:34;9.00;99.90
43049;DHT22;28673;44.412;11.918;2022-12-29T01:06:59;9.00;99.90
43049;DHT22;28673;44.412;11.918;2022-12-29T01:09:25;9.10;99.90
43049;DHT22;28673;44.412;11.918;2022-12-29T01:12:10;9.10;99.90
43049;DHT22;28673;44.412;11.918;2022-12-29T01:14:37;9.10;99.90
43049;DHT22;28673;44.412;11.918;2022-12-29T01:17:04;9.10;99.90
43049;DHT22;28673;44.412;11.918;2022-12-29T01:19:32;9.10;99.90
43049;DHT22;28673;44.412;11.918;2022-12-29T01:21:57;9.10;99.90
43049;DHT22;28673;44.412;11.918;2022-12-29T01:24:23;9.10;99.90
43049;DHT22;28673;44.412;11.918;2022-12-29T01:26:51;9.10;99.90
43049;DHT22;28673;44.412;11.918;2022-12-29T01:29:17;9.10;99.90
43049;DHT22;28673;44.412;11.918;2022-12-29T01:31:45;9.10;99.90
43049;DHT22;28673;44.412;11.918;2022-12-29T01:34:11;9.20;99.90
43049;DHT22;28673;44.412;11.918;2022-12-29T01:36:37;9.20;99.90
43049;DHT22;28673;44.412;11.918;2022-12-29T01:39:03;9.20;99.90
43049;DHT22;28673;44.412;11.918;2022-12-29T01:41:29;9.20;99.90
43049;DHT22;28673;44.412;11.918;2022-12-29T01:43:57;9.20;99.90
43049;DHT22;28673;44.412;11.918;2022-12-29T01:51:55;9.20;99.90
43049;DHT22;28673;44.412;11.918;2022-12-29T01:54:31;9.20;99.90
43049;DHT22;28673;44.412;11.918;2022-12-29T01:57:01;9.20;99.90
43049;DHT22;28673;44.412;11.918;2022-12-29T01:59:34;9.20;99.90
43049;DHT22;28673;44.412;11.918;2022-12-29T02:02:04;9.20;99.90
43049;DHT22;28673;44.412;11.918;2022-12-29T02:04:32;9.20;99.90
43049;DHT22;28673;44.412;11.918;2022-12-29T02:07:05;9.20;99.90
43049;DHT22;28673;44.412;11.918;2022-12-29T02:09:32;9.20;99.90
43049;DHT22;28673;44.412;11.918;2022-12-29T02:11:58;9.20;99.90
43049;DHT22;28673;44.412;11.918;2022-12-29T02:14:24;9.20;99.90
43049;DHT22;28673;44.412;11.918;2022-12-29T02:40:47;9.30;99.90
43049;DHT22;28673;44.412;11.918;2022-12-29T02:43:24;9.20;99.90
43049;DHT22;28673;44.412;11.918;2022-12-29T02:45:57;9.30;99.90
43049;DHT22;28673;44.412;11.918;2022-12-29T02:48:30;9.20;99.90
43049;DHT22;28673;44.412;11.918;2022-12-29T02:50:59;9.20;99.90
43049;DHT22;28673;44.412;11.918;2022-12-29T02:53:26;9.30;99.90
43049;DHT22;28673;44.412;11.918;2022-12-29T02:56:13;9.20;99.90
43049;DHT22;28673;44.412;11.918;2022-12-29T02:58:39;9.20;99.90
43049;DHT22;28673;44.412;11.918;2022-12-29T03:07:10;9.20;99.90
43049;DHT22;28673;44.412;11.918;2022-12-29T03:12:30;9.30;99.90
43049;DHT22;28673;44.412;11.918;2022-12-29T03:15:22;9.30;99.90
43049;DHT22;28673;44.412;11.918;2022-12-29T03:18:17;9.30;99.90
43049;DHT22;28673;44.412;11.918;2022-12-29T03:20:55;9.30;99.90
43049;DHT22;28673;44.412;11.918;2022-12-29T03:23:25;9.20;99.90
43049;DHT22;28673;44.412;11.918;2022-12-29T03:25:56;9.20;99.90
43049;DHT22;28673;44.412;11.918;2022-12-29T03:28:28;9.20;99.90
43049;DHT22;28673;44.412;11.918;2022-12-29T03:30:56;9.20;99.90
43049;DHT22;28673;44.412;11.918;2022-12-29T03:33:26;9.20;99.90
43049;DHT22;28673;44.412;11.918;2022-12-29T03:35:57;9.20;99.90
43049;DHT22;28673;44.412;11.918;2022-12-29T03:38:50;9.10;99.90
43049;DHT22;28673;44.412;11.918;2022-12-29T03:41:23;9.10;99.90
43049;DHT22;28673;44.412;11.918;2022-12-29T03:43:53;9.10;99.90
43049;DHT22;28673;44.412;11.918;2022-12-29T03:46:19;9.10;99.90
43049;DHT22;28673;44.412;11.918;2022-12-29T03:48:45;9.00;99.90
43049;DHT22;28673;44.412;11.918;2022-12-29T03:51:12;9.00;99.90
43049;DHT22;28673;44.412;11.918;2022-12-29T03:53:38;9.00;99.90
43049;DHT22;28673;44.412;11.918;2022-12-29T03:56:04;9.00;99.90
43049;DHT22;28673;44.412;11.918;2022-12-29T03:58:31;9.00;99.90
43049;DHT22;28673;44.412;11.918;2022-12-29T04:01:03;9.00;99.90
43049;DHT22;28673;44.412;11.918;2022-12-29T04:03:33;9.00;99.90
43049;DHT22;28673;44.412;11.918;2022-12-29T04:05:59;9.00;99.90
43049;DHT22;28673;44.412;11.918;2022-12-29T04:08:26;9.00;99.90
43049;DHT22;28673;44.412;11.918;2022-12-29T04:10:51;9.00;99.90
43049;DHT22;28673;44.412;11.918;2022-12-29T04:13:20;9.00;99.90
43049;DHT22;28673;44.412;11.918;2022-12-29T04:15:46;9.00;99.90
43049;DHT22;28673;44.412;11.918;2022-12-29T04:18:12;9.00;99.90
43049;DHT22;28673;44.412;11.918;2022-12-29T04:20:39;9.00;99.90
43049;DHT22;28673;44.412;11.918;2022-12-29T04:23:23;9.00;99.90
43049;DHT22;28673;44.412;11.918;2022-12-29T04:25:49;9.00;99.90
43049;DHT22;28673;44.412;11.918;2022-12-29T04:28:15;9.00;99.90
43049;DHT22;28673;44.412;11.918;2022-12-29T04:30:44;9.00;99.90
43049;DHT22;28673;44.412;11.918;2022-12-29T04:33:20;9.00;99.90
43049;DHT22;28673;44.412;11.918;2022-12-29T04:35:48;9.00;99.90
43049;DHT22;28673;44.412;11.918;2022-12-29T04:38:15;9.00;99.90
43049;DHT22;28673;44.412;11.918;2022-12-29T04:40:42;9.00;99.90
43049;DHT22;28673;44.412;11.918;2022-12-29T04:43:09;9.00;99.90
43049;DHT22;28673;44.412;11.918;2022-12-29T04:45:53;9.00;99.90
43049;DHT22;28673;44.412;11.918;2022-12-29T04:48:42;9.00;99.90
43049;DHT22;28673;44.412;11.918;2022-12-29T04:51:37;9.00;99.90
43049;DHT22;28673;44.412;11.918;2022-12-29T04:54:05;9.10;99.90
43049;DHT22;28673;44.412;11.918;2022-12-29T04:56:31;9.10;99.90
43049;DHT22;28673;44.412;11.918;2022-12-29T04:58:57;9.10;99.90
43049;DHT22;28673;44.412;11.918;2022-12-29T05:01:23;9.10;99.90
43049;DHT22;28673;44.412;11.918;2022-12-29T05:03:50;9.10;99.90
43049;DHT22;28673;44.412;11.918;2022-12-29T05:06:17;9.10;99.90
43049;DHT22;28673;44.412;11.918;2022-12-29T05:08:44;9.10;99.90
43049;DHT22;28673;44.412;11.918;2022-12-29T05:11:10;9.10;99.90
43049;DHT22;28673;44.412;11.918;2022-12-29T05:13:36;9.10;99.90
43049;DHT22;28673;44.412;11.918;2022-12-29T05:16:03;9.10;99.90
43049;DHT22;28673;44.412;11.918;2022-12-29T05:18:29;9.10;99.90
43049;DHT22;28673;44.412;11.918;2022-12-29T05:20:55;9.10;99.90
43049;DHT22;28673;44.412;11.918;2022-12-29T05:23:22;9.10;99.90
43049;DHT22;28673;44.412;11.918;2022-12-29T05:25:54;9.10;99.90
43049;DHT22;28673;44.412;11.918;2022-12-29T05:28:36;9.10;99.90
43049;DHT22;28673;44.412;11.918;2022-12-29T05:31:12;9.10;99.90
43049;DHT22;28673;44.412;11.918;2022-12-29T05:33:38;9.10;99.90
43049;DHT22;28673;44.412;11.918;2022-12-29T05:36:05;9.10;99.90
43049;DHT22;28673;44.412;11.918;2022-12-29T05:38:32;9.10;99.90
43049;DHT22;28673;44.412;11.918;2022-12-29T05:40:58;9.10;99.90
43049;DHT22;28673;44.412;11.918;2022-12-29T05:44:00;9.20;99.90
43049;DHT22;28673;44.412;11.918;2022-12-29T05:46:48;9.20;99.90
43049;DHT22;28673;44.412;11.918;2022-12-29T05:49:32;9.20;99.90
43049;DHT22;28673;44.412;11.918;2022-12-29T05:52:06;9.20;99.90
43049;DHT22;28673;44.412;11.918;2022-12-29T05:54:33;9.20;99.90
43049;DHT22;28673;44.412;11.918;2022-12-29T05:57:00;9.20;99.90
43049;DHT22;28673;44.412;11.918;2022-12-29T05:59:27;9.20;99.90
43049;DHT22;28673;44.412;11.918;2022-12-29T06:01:54;9.10;99.90
43049;DHT22;28673;44.412;11.918;2022-12-29T06:04:19;9.10;99.90
43049;DHT22;28673;44.412;11.918;2022-12-29T06:06:46;9.20;99.90
43049;DHT22;28673;44.412;11.918;2022-12-29T06:09:20;9.20;99.90
43049;DHT22;28673;44.412;11.918;2022-12-29T06:11:46;9.20;99.90
43049;DHT22;28673;44.412;11.918;2022-12-29T06:14:12;9.20;99.90
43049;DHT22;28673;44.412;11.918;2022-12-29T06:16:38;9.20;99.90
43049;DHT22;28673;44.412;11.918;2022-12-29T06:19:08;9.20;99.90
43049;DHT22;28673;44.412;11.918;2022-12-29T06:21:35;9.20;99.90
43049;DHT22;28673;44.412;11.918;2022-12-29T06:24:01;9.20;99.90
43049;DHT22;28673;44.412;11.918;2022-12-29T06:26:27;9.20;99.90
43049;DHT22;28673;44.412;11.918;2022-12-29T06:28:53;9.20;99.90
43049;DHT22;28673;44.412;11.918;2022-12-29T06:31:19;9.20;99.90
43049;DHT22;28673;44.412;11.918;2022-12-29T06:33:45;9.20;99.90
43049;DHT22;28673;44.412;11.918;2022-12-29T06:36:11;9.20;99.90
43049;DHT22;28673;44.412;11.918;2022-12-29T06:38:37;9.20;99.90
43049;DHT22;28673;44.412;11.918;2022-12-29T06:41:02;9.20;99.90
43049;DHT22;28673;44.412;11.918;2022-12-29T06:43:34;9.20;99.90
43049;DHT22;28673;44.412;11.918;2022-12-29T06:46:23;9.20;99.90
43049;DHT22;28673;44.412;11.918;2022-12-29T06:48:49;9.20;99.90
43049;DHT22;28673;44.412;11.918;2022-12-29T06:51:15;9.20;99.90
43049;DHT22;28673;44.412;11.918;2022-12-29T06:53:41;9.20;99.90
43049;DHT22;28673;44.412;11.918;2022-12-29T06:56:07;9.30;99.90
43049;DHT22;28673;44.412;11.918;2022-12-29T06:58:33;9.30;99.90
43049;DHT22;28673;44.412;11.918;2022-12-29T07:00:59;9.30;99.90
43049;DHT22;28673;44.412;11.918;2022-12-29T07:03:25;9.30;99.90
43049;DHT22;28673;44.412;11.918;2022-12-29T07:05:50;9.30;99.90
43049;DHT22;28673;44.412;11.918;2022-12-29T07:08:16;9.30;99.90
43049;DHT22;28673;44.412;11.918;2022-12-29T07:10:42;9.30;99.90
43049;DHT22;28673;44.412;11.918;2022-12-29T07:13:08;9.30;99.90
43049;DHT22;28673;44.412;11.918;2022-12-29T07:15:35;9.30;99.90
43049;DHT22;28673;44.412;11.918;2022-12-29T07:18:01;9.30;99.90
43049;DHT22;28673;44.412;11.918;2022-12-29T07:20:28;9.30;99.90
43049;DHT22;28673;44.412;11.918;2022-12-29T07:22:54;9.30;99.90
43049;DHT22;28673;44.412;11.918;2022-12-29T07:25:20;9.30;99.90
43049;DHT22;28673;44.412;11.918;2022-12-29T07:27:46;9.30;99.90
43049;DHT22;28673;44.412;11.918;2022-12-29T07:30:12;9.30;99.90
43049;DHT22;28673;44.412;11.918;2022-12-29T07:32:38;9.40;99.90
43049;DHT22;28673;44.412;11.918;2022-12-29T07:35:04;9.40;99.90
43049;DHT22;28673;44.412;11.918;2022-12-29T07:37:30;9.40;99.90
43049;DHT22;28673;44.412;11.918;2022-12-29T07:39:55;9.40;99.90
43049;DHT22;28673;44.412;11.918;2022-12-29T07:42:21;9.40;99.90
43049;DHT22;28673;44.412;11.918;2022-12-29T07:44:50;9.40;99.90
43049;DHT22;28673;44.412;11.918;2022-12-29T07:47:32;9.50;99.90
43049;DHT22;28673;44.412;11.918;2022-12-29T07:49:58;9.50;99.90
43049;DHT22;28673;44.412;11.918;2022-12-29T07:52:24;9.50;99.90
43049;DHT22;28673;44.412;11.918;2022-12-29T07:54:50;9.50;99.90
43049;DHT22;28673;44.412;11.918;2022-12-29T07:57:15;9.50;99.90
43049;DHT22;28673;44.412;11.918;2022-12-29T07:59:41;9.60;99.90
43049;DHT22;28673;44.412;11.918;2022-12-29T08:02:10;9.60;99.90
43049;DHT22;28673;44.412;11.918;2022-12-29T08:04:37;9.60;99.90
43049;DHT22;28673;44.412;11.918;2022-12-29T08:07:03;9.70;99.90
43049;DHT22;28673;44.412;11.918;2022-12-29T08:09:28;9.70;99.90
43049;DHT22;28673;44.412;11.918;2022-12-29T08:11:55;9.80;99.90
43049;DHT22;28673;44.412;11.918;2022-12-29T08:14:20;9.80;99.90
43049;DHT22;28673;44.412;11.918;2022-12-29T08:16:46;9.80;99.90
43049;DHT22;28673;44.412;11.918;2022-12-29T08:19:13;9.90;99.90
43049;DHT22;28673;44.412;11.918;2022-12-29T08:21:39;9.90;99.90
43049;DHT22;28673;44.412;11.918;2022-12-29T08:24:06;10.00;99.90
43049;DHT22;28673;44.412;11.918;2022-12-29T08:26:31;10.10;99.90
43049;DHT22;28673;44.412;11.918;2022-12-29T08:28:57;10.10;99.90
43049;DHT22;28673;44.412;11.918;2022-12-29T08:31:23;10.20;99.90
43049;DHT22;28673;44.412;11.918;2022-12-29T08:33:50;10.20;99.90
43049;DHT22;28673;44.412;11.918;2022-12-29T08:36:16;10.20;99.90
43049;DHT22;28673;44.412;11.918;2022-12-29T08:38:42;10.30;99.90
43049;DHT22;28673;44.412;11.918;2022-12-29T08:41:08;10.30;99.90
43049;DHT22;28673;44.412;11.918;2022-12-29T08:43:34;10.30;99.90
43049;DHT22;28673;44.412;11.918;2022-12-29T08:46:00;10.40;99.90
43049;DHT22;28673;44.412;11.918;2022-12-29T08:48:26;10.40;99.90
43049;DHT22;28673;44.412;11.918;2022-12-29T08:50:52;10.40;99.90
43049;DHT22;28673;44.412;11.918;2022-12-29T08:53:19;10.50;99.90
43049;DHT22;28673;44.412;11.918;2022-12-29T08:55:46;10.50;99.90
43049;DHT22;28673;44.412;11.918;2022-12-29T08:58:12;10.50;99.90
43049;DHT22;28673;44.412;11.918;2022-12-29T09:00:43;10.50;99.90
43049;DHT22;28673;44.412;11.918;2022-12-29T09:03:10;10.60;99.90
43049;DHT22;28673;44.412;11.918;2022-12-29T09:05:36;10.60;99.90
43049;DHT22;28673;44.412;11.918;2022-12-29T09:08:03;10.70;99.90
43049;DHT22;28673;44.412;11.918;2022-12-29T09:10:30;10.80;99.90
43049;DHT22;28673;44.412;11.918;2022-12-29T09:12:56;10.80;99.90
43049;DHT22;28673;44.412;11.918;2022-12-29T09:15:22;10.90;99.90
43049;DHT22;28673;44.412;11.918;2022-12-29T09:17:49;11.00;99.90
43049;DHT22;28673;44.412;11.918;2022-12-29T09:20:16;11.00;99.90
43049;DHT22;28673;44.412;11.918;2022-12-29T09:22:43;11.00;99.90
43049;DHT22;28673;44.412;11.918;2022-12-29T09:25:10;11.10;99.90
43049;DHT22;28673;44.412;11.918;2022-12-29T09:27:36;11.10;99.90
43049;DHT22;28673;44.412;11.918;2022-12-29T09:30:06;11.10;99.90
43049;DHT22;28673;44.412;11.918;2022-12-29T09:32:33;11.20;99.90
43049;DHT22;28673;44.412;11.918;2022-12-29T09:34:59;11.20;99.90
43049;DHT22;28673;44.412;11.918;2022-12-29T09:37:25;11.20;99.90
43049;DHT22;28673;44.412;11.918;2022-12-29T09:39:51;11.20;99.90
43049;DHT22;28673;44.412;11.918;2022-12-29T09:45:15;11.40;99.90
43049;DHT22;28673;44.412;11.918;2022-12-29T09:47:44;11.40;99.90
43049;DHT22;28673;44.412;11.918;2022-12-29T09:53:15;11.60;99.90
43049;DHT22;28673;44.412;11.918;2022-12-29T09:55:53;11.60;99.90
43049;DHT22;28673;44.412;11.918;2022-12-29T09:58:24;11.60;99.90
43049;DHT22;28673;44.412;11.918;2022-12-29T10:01:06;11.70;99.90
43049;DHT22;28673;44.412;11.918;2022-12-29T10:03:48;11.70;99.90
43049;DHT22;28673;44.412;11.918;2022-12-29T10:06:21;11.70;99.90
43049;DHT22;28673;44.412;11.918;2022-12-29T10:09:19;11.70;99.90
43049;DHT22;28673;44.412;11.918;2022-12-29T10:20:38;12.00;99.90
43049;DHT22;28673;44.412;11.918;2022-12-29T10:23:28;12.00;99.90
43049;DHT22;28673;44.412;11.918;2022-12-29T10:25:59;12.00;99.90
43049;DHT22;28673;44.412;11.918;2022-12-29T10:28:37;12.00;99.90
43049;DHT22;28673;44.412;11.918;2022-12-29T10:31:16;12.00;99.90
43049;DHT22;28673;44.412;11.918;2022-12-29T10:33:46;12.00;99.90
43049;DHT22;28673;44.412;11.918;2022-12-29T10:36:23;12.00;99.90
43049;DHT22;28673;44.412;11.918;2022-12-29T10:39:04;12.00;99.90
43049;DHT22;28673;44.412;11.918;2022-12-29T10:41:59;11.90;99.90
43049;DHT22;28673;44.412;11.918;2022-12-29T10:44:30;12.00;99.90
43049;DHT22;28673;44.412;11.918;2022-12-29T10:47:04;12.00;99.90
43049;DHT22;28673;44.412;11.918;2022-12-29T10:49:35;12.00;99.90
43049;DHT22;28673;44.412;11.918;2022-12-29T10:52:03;12.00;99.90
43049;DHT22;28673;44.412;11.918;2022-12-29T10:54:42;12.10;99.90
43049;DHT22;28673;44.412;11.918;2022-12-29T10:57:18;12.10;99.90
43049;DHT22;28673;44.412;11.918;2022-12-29T10:59:47;12.10;99.90
43049;DHT22;28673;44.412;11.918;2022-12-29T11:07:49;12.20;99.90
43049;DHT22;28673;44.412;11.918;2022-12-29T11:12:59;12.20;99.90
43049;DHT22;28673;44.412;11.918;2022-12-29T11:15:25;12.20;99.90
43049;DHT22;28673;44.412;11.918;2022-12-29T11:18:00;12.20;99.90
43049;DHT22;28673;44.412;11.918;2022-12-29T11:20:39;12.30;99.90
43049;DHT22;28673;44.412;11.918;2022-12-29T11:26:14;12.20;99.90
43049;DHT22;28673;44.412;11.918;2022-12-29T11:28:47;12.20;99.90
43049;DHT22;28673;44.412;11.918;2022-12-29T11:31:17;12.20;99.90
43049;DHT22;28673;44.412;11.918;2022-12-29T11:33:43;12.20;99.90
43049;DHT22;28673;44.412;11.918;2022-12-29T11:36:18;12.20;99.90
43049;DHT22;28673;44.412;11.918;2022-12-29T11:38:51;12.30;99.90
43049;DHT22;28673;44.412;11.918;2022-12-29T11:41:23;12.30;99.90
43049;DHT22;28673;44.412;11.918;2022-12-29T11:43:52;12.30;99.90
43049;DHT22;28673;44.412;11.918;2022-12-29T11:46:22;12.30;99.90
43049;DHT22;28673;44.412;11.918;2022-12-29T11:48:50;12.30;99.90
43049;DHT22;28673;44.412;11.918;2022-12-29T11:51:25;12.30;99.90
43049;DHT22;28673;44.412;11.918;2022-12-29T11:53:56;12.30;99.90
43049;DHT22;28673;44.412;11.918;2022-12-29T11:56:38;12.30;99.90
43049;DHT22;28673;44.412;11.918;2022-12-29T11:59:53;12.40;99.90
43049;DHT22;28673;44.412;11.918;2022-12-29T12:02:35;12.40;99.90
43049;DHT22;28673;44.412;11.918;2022-12-29T12:05:17;12.40;99.90
43049;DHT22;28673;44.412;11.918;2022-12-29T12:07:47;12.50;99.90
43049;DHT22;28673;44.412;11.918;2022-12-29T12:10:25;12.50;99.90
43049;DHT22;28673;44.412;11.918;2022-12-29T12:13:03;12.50;99.90
43049;DHT22;28673;44.412;11.918;2022-12-29T12:15:40;12.50;99.90
43049;DHT22;28673;44.412;11.918;2022-12-29T12:21:51;12.40;99.90
43049;DHT22;28673;44.412;11.918;2022-12-29T12:24:00;12.50;99.90
43049;DHT22;28673;44.412;11.918;2022-12-29T12:26:34;12.40;99.90
43049;DHT22;28673;44.412;11.918;2022-12-29T12:29:23;12.40;99.90
43049;DHT22;28673;44.412;11.918;2022-12-29T12:31:54;12.40;99.90
43049;DHT22;28673;44.412;11.918;2022-12-29T12:34:38;12.50;99.90
43049;DHT22;28673;44.412;11.918;2022-12-29T13:05:21;12.80;99.90
43049;DHT22;28673;44.412;11.918;2022-12-29T13:08:24;12.80;99.90
43049;DHT22;28673;44.412;11.918;2022-12-29T13:21:39;12.90;99.90
43049;DHT22;28673;44.412;11.918;2022-12-29T13:26:54;13.00;99.90
43049;DHT22;28673;44.412;11.918;2022-12-29T13:30:17;13.10;99.90
43049;DHT22;28673;44.412;11.918;2022-12-29T13:35:54;13.30;99.90
43049;DHT22;28673;44.412;11.918;2022-12-29T13:38:47;13.40;99.90
43049;DHT22;28673;44.412;11.918;2022-12-29T13:41:25;13.40;99.90
43049;DHT22;28673;44.412;11.918;2022-12-29T13:43:57;13.40;99.90
43049;DHT22;28673;44.412;11.918;2022-12-29T13:46:28;13.50;99.90
43049;DHT22;28673;44.412;11.918;2022-12-29T13:49:04;13.50;99.90
43049;DHT22;28673;44.412;11.918;2022-12-29T13:51:31;13.50;99.90
43049;DHT22;28673;44.412;11.918;2022-12-29T13:59:49;13.60;99.90
43049;DHT22;28673;44.412;11.918;2022-12-29T14:07:58;13.70;99.90
43049;DHT22;28673;44.412;11.918;2022-12-29T14:10:36;13.70;99.90
43049;DHT22;28673;44.412;11.918;2022-12-29T14:13:14;13.70;99.90
43049;DHT22;28673;44.412;11.918;2022-12-29T14:15:45;13.70;99.90
43049;DHT22;28673;44.412;11.918;2022-12-29T14:18:19;13.70;99.90
43049;DHT22;28673;44.412;11.918;2022-12-29T14:20:56;13.70;99.90
43049;DHT22;28673;44.412;11.918;2022-12-29T14:23:40;13.70;99.90
43049;DHT22;28673;44.412;11.918;2022-12-29T14:28:45;13.70;99.90
43049;DHT22;28673;44.412;11.918;2022-12-29T14:36:38;13.50;99.90
43049;DHT22;28673;44.412;11.918;2022-12-29T14:44:29;13.30;99.90
43049;DHT22;28673;44.412;11.918;2022-12-29T14:46:56;13.30;99.90
43049;DHT22;28673;44.412;11.918;2022-12-29T14:49:26;13.30;99.90
43049;DHT22;28673;44.412;11.918;2022-12-29T14:51:55;13.30;99.90
43049;DHT22;28673;44.412;11.918;2022-12-29T14:54:53;13.20;99.90
43049;DHT22;28673;44.412;11.918;2022-12-29T14:57:30;13.20;99.90
43049;DHT22;28673;44.412;11.918;2022-12-29T15:00:23;13.10;99.90
43049;DHT22;28673;44.412;11.918;2022-12-29T15:03:05;13.10;99.90
43049;DHT22;28673;44.412;11.918;2022-12-29T15:05:58;13.00;99.90
43049;DHT22;28673;44.412;11.918;2022-12-29T15:08:39;12.90;99.90
43049;DHT22;28673;44.412;11.918;2022-12-29T15:13:40;12.80;99.90
43049;DHT22;28673;44.412;11.918;2022-12-29T15:18:55;12.70;99.90
43049;DHT22;28673;44.412;11.918;2022-12-29T15:21:33;12.60;99.90
43049;DHT22;28673;44.412;11.918;2022-12-29T15:23:59;12.60;99.90
43049;DHT22;28673;44.412;11.918;2022-12-29T15:26:42;12.50;99.90
43049;DHT22;28673;44.412;11.918;2022-12-29T15:29:42;12.50;99.90
43049;DHT22;28673;44.412;11.918;2022-12-29T15:32:27;12.50;99.90
43049;DHT22;28673;44.412;11.918;2022-12-29T15:34:56;12.40;99.90
43049;DHT22;28673;44.412;11.918;2022-12-29T15:37:26;12.40;99.90
43049;DHT22;28673;44.412;11.918;2022-12-29T15:39:54;12.40;99.90
43049;DHT22;28673;44.412;11.918;2022-12-29T15:45:06;12.20;99.90
43049;DHT22;28673;44.412;11.918;2022-12-29T15:47:34;12.20;99.90
43049;DHT22;28673;44.412;11.918;2022-12-29T15:50:20;12.20;99.90
43049;DHT22;28673;44.412;11.918;2022-12-29T15:52:47;12.20;99.90
43049;DHT22;28673;44.412;11.918;2022-12-29T15:55:32;12.20;99.90
43049;DHT22;28673;44.412;11.918;2022-12-29T15:58:00;12.10;99.90
43049;DHT22;28673;44.412;11.918;2022-12-29T16:00:32;12.10;99.90
43049;DHT22;28673;44.412;11.918;2022-12-29T16:03:04;12.10;99.90
43049;DHT22;28673;44.412;11.918;2022-12-29T16:05:39;12.10;99.90
43049;DHT22;28673;44.412;11.918;2022-12-29T16:08:28;12.00;99.90
43049;DHT22;28673;44.412;11.918;2022-12-29T16:10:55;12.00;99.90
43049;DHT22;28673;44.412;11.918;2022-12-29T16:13:34;12.00;99.90
43049;DHT22;28673;44.412;11.918;2022-12-29T16:16:25;11.90;99.90
43049;DHT22;28673;44.412;11.918;2022-12-29T16:18:53;11.90;99.90
43049;DHT22;28673;44.412;11.918;2022-12-29T16:21:28;11.80;99.90
43049;DHT22;28673;44.412;11.918;2022-12-29T16:24:05;11.80;99.90
43049;DHT22;28673;44.412;11.918;2022-12-29T16:26:32;11.70;99.90
43049;DHT22;28673;44.412;11.918;2022-12-29T16:29:00;11.70;99.90
43049;DHT22;28673;44.412;11.918;2022-12-29T16:31:36;11.70;99.90
43049;DHT22;28673;44.412;11.918;2022-12-29T16:34:42;11.70;99.90
43049;DHT22;28673;44.412;11.918;2022-12-29T16:37:33;11.70;99.90
43049;DHT22;28673;44.412;11.918;2022-12-29T16:43:02;11.60;99.90
43049;DHT22;28673;44.412;11.918;2022-12-29T16:48:18;11.60;99.90
43049;DHT22;28673;44.412;11.918;2022-12-29T16:50:45;11.60;99.90
43049;DHT22;28673;44.412;11.918;2022-12-29T16:56:15;11.60;99.90
43049;DHT22;28673;44.412;11.918;2022-12-29T16:58:47;11.50;99.90
43049;DHT22;28673;44.412;11.918;2022-12-29T17:01:13;11.50;99.90
43049;DHT22;28673;44.412;11.918;2022-12-29T17:04:11;11.50;99.90
43049;DHT22;28673;44.412;11.918;2022-12-29T17:06:38;11.50;99.90
43049;DHT22;28673;44.412;11.918;2022-12-29T17:09:23;11.50;99.90
43049;DHT22;28673;44.412;11.918;2022-12-29T17:11:54;11.50;99.90
43049;DHT22;28673;44.412;11.918;2022-12-29T17:14:40;11.50;99.90
43049;DHT22;28673;44.412;11.918;2022-12-29T17:17:17;11.40;99.90
43049;DHT22;28673;44.412;11.918;2022-12-29T17:19:51;11.40;99.90
43049;DHT22;28673;44.412;11.918;2022-12-29T17:22:23;11.50;99.90
43049;DHT22;28673;44.412;11.918;2022-12-29T17:24:51;11.40;99.90
43049;DHT22;28673;44.412;11.918;2022-12-29T17:27:42;11.40;99.90
43049;DHT22;28673;44.412;11.918;2022-12-29T17:30:15;11.40;99.90
43049;DHT22;28673;44.412;11.918;2022-12-29T17:32:42;11.40;99.90
43049;DHT22;28673;44.412;11.918;2022-12-29T17:35:17;11.40;99.90
43049;DHT22;28673;44.412;11.918;2022-12-29T17:37:44;11.40;99.90
43049;DHT22;28673;44.412;11.918;2022-12-29T17:40:16;11.40;99.90
43049;DHT22;28673;44.412;11.918;2022-12-29T17:42:47;11.40;99.90
43049;DHT22;28673;44.412;11.918;2022-12-29T17:45:16;11.40;99.90
43049;DHT22;28673;44.412;11.918;2022-12-29T17:47:43;11.40;99.90
43049;DHT22;28673;44.412;11.918;2022-12-29T17:50:12;11.40;99.90
43049;DHT22;28673;44.412;11.918;2022-12-29T17:52:38;11.40;99.90
43049;DHT22;28673;44.412;11.918;2022-12-29T17:55:04;11.40;99.90
43049;DHT22;28673;44.412;11.918;2022-12-29T17:57:31;11.40;99.90
43049;DHT22;28673;44.412;11.918;2022-12-29T17:59:57;11.40;99.90
43049;DHT22;28673;44.412;11.918;2022-12-29T18:02:30;11.40;99.90
43049;DHT22;28673;44.412;11.918;2022-12-29T18:04:57;11.30;99.90
43049;DHT22;28673;44.412;11.918;2022-12-29T18:07:28;11.30;99.90
43049;DHT22;28673;44.412;11.918;2022-12-29T18:09:55;11.30;99.90
43049;DHT22;28673;44.412;11.918;2022-12-29T18:12:30;11.30;99.90
43049;DHT22;28673;44.412;11.918;2022-12-29T18:14:57;11.30;99.90
43049;DHT22;28673;44.412;11.918;2022-12-29T18:17:24;11.30;99.90
43049;DHT22;28673;44.412;11.918;2022-12-29T18:19:50;11.30;99.90
43049;DHT22;28673;44.412;11.918;2022-12-29T18:22:20;11.30;99.90
43049;DHT22;28673;44.412;11.918;2022-12-29T18:24:47;11.30;99.90
43049;DHT22;28673;44.412;11.918;2022-12-29T18:27:14;11.30;99.90